Time;durP1;ratioP1;P1;durP2;ratioP2;P2;SDS_P1;SDS_P2;PMS_P1;PMS_P2;Temp;Humidity;BMP_temperature;BMP_pressure;BME280_temperature;BME280_humidity;BME280_pressure;Samples;Min_cycle;Max_cycle;Signal;HPM_P1;HPM_P2
2023/06/10 00:00:44;;;;;;;7.55;5.47;;;;;;;17.78;34.59;95431.69;4952389;28;20038;-66
2023/06/10 00:03:09;;;;;;;8.07;5.05;;;;;;;17.78;34.52;95429.00;4951964;28;20026;-66
2023/06/10 00:05:35;;;;;;;7.50;5.10;;;;;;;17.64;34.84;95432.94;4935880;28;20035;-66
2023/06/10 00:08:06;;;;;;;6.40;4.88;;;;;;;17.73;34.43;95433.44;4954576;28;20040;-66
2023/06/10 00:10:32;;;;;;;6.93;4.97;;;;;;;17.75;34.36;95432.16;4957571;28;20480;-66
2023/06/10 00:12:58;;;;;;;7.00;5.00;;;;;;;17.69;34.63;95432.25;4956447;28;20034;-66
2023/06/10 00:15:23;;;;;;;8.77;5.50;;;;;;;17.62;34.36;95435.03;4954373;28;20288;-66
2023/06/10 00:17:48;;;;;;;7.68;5.05;;;;;;;17.66;34.79;95433.53;4954502;28;20035;-66
2023/06/10 00:20:14;;;;;;;7.32;5.15;;;;;;;17.59;34.49;95422.84;4953876;28;20039;-66
2023/06/10 00:22:41;;;;;;;8.75;5.20;;;;;;;17.62;34.96;95418.88;4949702;28;20027;-66
2023/06/10 00:25:07;;;;;;;6.20;4.85;;;;;;;17.49;35.08;95428.78;4954984;28;20652;-66
2023/06/10 00:27:34;;;;;;;6.28;4.80;;;;;;;17.60;34.51;95426.34;4951130;28;20020;-66
2023/06/10 00:30:06;;;;;;;6.93;4.88;;;;;;;17.59;34.72;95430.09;4950933;28;20127;-66
2023/06/10 00:32:33;;;;;;;10.75;5.10;;;;;;;17.52;34.80;95425.66;4950207;28;20048;-66
2023/06/10 00:34:58;;;;;;;7.00;4.95;;;;;;;17.48;34.66;95421.78;4946587;28;20031;-66
2023/06/10 00:37:23;;;;;;;8.23;5.10;;;;;;;17.46;34.53;95428.41;4930503;28;20043;-66
2023/06/10 00:39:49;;;;;;;7.75;4.90;;;;;;;17.40;34.63;95425.56;4948274;28;20031;-66
2023/06/10 00:42:15;;;;;;;6.68;4.97;;;;;;;17.40;34.45;95427.44;4949318;28;20062;-66
2023/06/10 00:44:40;;;;;;;8.05;5.07;;;;;;;17.38;34.28;95426.84;4950618;28;20097;-66
2023/06/10 00:47:06;;;;;;;7.05;5.28;;;;;;;17.36;34.53;95432.47;4953050;28;20101;-66
2023/06/10 00:49:32;;;;;;;9.07;5.10;;;;;;;17.24;34.61;95429.69;4947885;28;20545;-66
2023/06/10 00:51:57;;;;;;;6.28;4.90;;;;;;;17.24;34.46;95428.91;4915266;28;20039;-66
2023/06/10 00:54:22;;;;;;;8.52;4.97;;;;;;;17.22;34.28;95429.13;4930663;28;20050;-66
2023/06/10 00:56:48;;;;;;;5.45;4.70;;;;;;;17.10;34.29;95429.00;4931423;28;20043;-66
2023/06/10 00:59:14;;;;;;;6.47;4.75;;;;;;;17.22;33.67;95431.81;4933375;28;20547;-66
2023/06/10 01:01:40;;;;;;;7.10;4.85;;;;;;;17.17;33.47;95426.28;4951981;28;20073;-68
2023/06/10 01:04:06;;;;;;;8.15;4.88;;;;;;;17.09;33.80;95429.22;4946499;23;20049;-66
2023/06/10 01:06:47;;;;;;;7.10;4.80;;;;;;;17.12;33.82;95432.34;4954089;28;20054;-66
2023/06/10 01:09:30;;;;;;;7.47;4.68;;;;;;;17.20;33.42;95433.09;4931133;28;20051;-66
2023/06/10 01:12:03;;;;;;;8.07;5.22;;;;;;;17.18;33.63;95430.63;4958712;28;20030;-66
2023/06/10 01:14:31;;;;;;;8.07;4.72;;;;;;;17.16;33.43;95430.00;4942007;28;20023;-66
2023/06/10 01:16:57;;;;;;;6.35;4.18;;;;;;;17.22;33.49;95430.97;4950265;28;20039;-66
2023/06/10 01:19:24;;;;;;;5.70;4.97;;;;;;;17.06;33.88;95429.69;4943451;28;20074;-66
2023/06/10 01:21:51;;;;;;;8.23;4.85;;;;;;;17.07;33.92;95432.16;4945475;28;20047;-66
2023/06/10 01:24:18;;;;;;;9.27;4.80;;;;;;;17.06;33.68;95424.31;4945999;28;20070;-66
2023/06/10 01:26:43;;;;;;;6.40;4.80;;;;;;;16.98;34.31;95428.94;4929776;28;20051;-66
2023/06/10 01:29:16;;;;;;;6.10;4.25;;;;;;;17.08;33.95;95433.78;4912817;28;20031;-66
2023/06/10 01:31:57;;;;;;;7.53;4.75;;;;;;;17.01;33.77;95439.25;4928531;28;20450;-66
2023/06/10 01:34:23;;;;;;;7.57;4.78;;;;;;;16.95;34.19;95432.06;4943887;28;20024;-66
2023/06/10 01:36:48;;;;;;;7.55;4.80;;;;;;;16.99;33.76;95430.56;4928077;28;20046;-66
2023/06/10 01:39:18;;;;;;;8.23;4.65;;;;;;;16.94;34.23;95433.13;4928571;28;20027;-66
2023/06/10 01:41:43;;;;;;;7.82;4.97;;;;;;;17.01;33.90;95441.94;4929739;28;20031;-66
2023/06/10 01:44:09;;;;;;;6.82;4.88;;;;;;;16.96;34.30;95441.78;4946214;28;20529;-66
2023/06/10 01:46:35;;;;;;;6.63;4.57;;;;;;;16.95;34.05;95440.13;4934014;28;20067;-66
2023/06/10 01:49:00;;;;;;;6.05;4.60;;;;;;;16.98;33.95;95437.00;4947327;28;20042;-66
2023/06/10 01:51:26;;;;;;;9.23;5.30;;;;;;;16.83;34.31;95433.84;4950416;28;20030;-66
2023/06/10 01:53:51;;;;;;;7.45;4.60;;;;;;;16.88;34.08;95445.59;4944986;28;20055;-66
2023/06/10 01:56:19;;;;;;;6.63;4.78;;;;;;;16.88;34.17;95436.69;4946973;28;20034;-66
2023/06/10 01:58:44;;;;;;;;;;;;;;;16.87;34.35;95430.47;4949513;28;20031;-66
2023/06/10 02:01:10;;;;;;;6.87;4.57;;;;;;;16.80;34.51;95427.06;4950487;28;19918;-66
2023/06/10 02:03:35;;;;;;;6.97;5.00;;;;;;;16.79;34.61;95433.47;4945244;28;20939;-66
2023/06/10 02:06:00;;;;;;;7.63;5.18;;;;;;;16.79;34.67;95427.28;4956601;28;20046;-66
2023/06/10 02:08:27;;;;;;;9.32;4.65;;;;;;;16.69;34.79;95433.97;4957698;28;20042;-66
2023/06/10 02:10:53;;;;;;;7.93;4.65;;;;;;;16.72;34.53;95430.84;4958417;28;20027;-66
2023/06/10 02:13:18;;;;;;;6.35;4.70;;;;;;;16.71;34.48;95431.91;4951243;28;20039;-66
2023/06/10 02:15:43;;;;;;;6.38;4.70;;;;;;;16.64;34.46;95433.81;4950110;28;20028;-66
2023/06/10 02:18:11;;;;;;;7.00;5.20;;;;;;;16.55;35.01;95432.47;4947480;28;20350;-66
2023/06/10 02:20:37;;;;;;;7.50;5.00;;;;;;;16.58;34.53;95434.69;4943561;28;20047;-66
2023/06/10 02:23:03;;;;;;;6.07;4.60;;;;;;;16.60;34.16;95435.31;4944776;28;20055;-66
2023/06/10 02:25:28;;;;;;;7.85;5.00;;;;;;;16.55;34.52;95438.66;4945256;28;20113;-66
2023/06/10 02:27:54;;;;;;;6.93;4.63;;;;;;;16.49;34.58;95440.34;4950861;28;20051;-66
2023/06/10 02:30:19;;;;;;;11.27;5.20;;;;;;;16.51;34.48;95435.59;4947746;28;20430;-66
2023/06/10 02:32:47;;;;;;;7.15;4.82;;;;;;;16.49;34.95;95434.19;4945515;28;20047;-66
2023/06/10 02:35:17;;;;;;;10.90;5.20;;;;;;;16.44;34.42;95434.00;4945237;28;20569;-66
2023/06/10 02:37:43;;;;;;;8.35;4.90;;;;;;;16.34;34.68;95437.16;4928333;28;20079;-66
2023/06/10 02:40:08;;;;;;;8.52;4.97;;;;;;;16.34;34.66;95439.84;4944595;28;20129;-66
2023/06/10 02:42:34;;;;;;;10.98;4.82;;;;;;;16.40;34.48;95444.38;4949692;28;20437;-67
2023/06/10 02:45:00;;;;;;;6.88;4.90;;;;;;;16.33;34.57;95447.09;4949727;28;20046;-66
2023/06/10 02:47:26;;;;;;;7.82;4.80;;;;;;;16.33;34.60;95446.25;4950410;28;20122;-66
2023/06/10 02:49:51;;;;;;;9.57;4.90;;;;;;;16.32;34.59;95448.13;4952913;28;20123;-66
2023/06/10 02:52:17;;;;;;;8.38;4.60;;;;;;;16.24;34.93;95440.34;4950336;28;20043;-66
2023/06/10 02:54:42;;;;;;;6.65;5.03;;;;;;;16.28;34.56;95438.06;4949289;28;20285;-66
2023/06/10 02:57:08;;;;;;;7.65;4.80;;;;;;;16.26;34.69;95444.44;4950672;28;20043;-66
2023/06/10 02:59:33;;;;;;;8.85;4.90;;;;;;;16.24;34.57;95441.16;4932917;28;20425;-66
2023/06/10 03:02:01;;;;;;;6.90;4.55;;;;;;;16.25;34.68;95437.44;4950368;28;20157;-66
2023/06/10 03:04:28;;;;;;;6.80;4.60;;;;;;;16.22;34.55;95437.84;4935204;28;20625;-66
2023/06/10 03:06:54;;;;;;;6.60;4.90;;;;;;;16.13;34.93;95436.50;4952732;28;20038;-66
2023/06/10 03:09:19;;;;;;;8.48;4.82;;;;;;;16.20;34.67;95436.44;4951399;28;20041;-66
2023/06/10 03:11:45;;;;;;;10.30;5.00;;;;;;;16.22;34.63;95439.75;4946877;28;20035;-66
2023/06/10 03:14:10;;;;;;;8.23;4.70;;;;;;;16.20;34.94;95433.75;4953881;28;20089;-66
2023/06/10 03:16:40;;;;;;;9.10;4.90;;;;;;;16.09;35.08;95433.44;4948985;28;20076;-66
2023/06/10 03:19:06;;;;;;;6.15;4.60;;;;;;;16.13;34.87;95436.50;4948127;28;20032;-66
2023/06/10 03:21:31;;;;;;;7.28;4.95;;;;;;;16.04;35.36;95435.94;4947674;28;20537;-66
2023/06/10 03:23:56;;;;;;;6.90;4.57;;;;;;;15.99;35.22;95433.91;4950087;28;20060;-68
2023/06/10 03:26:22;;;;;;;7.85;4.72;;;;;;;16.04;34.90;95440.50;4947850;28;20023;-68
2023/06/10 03:28:48;;;;;;;7.45;4.70;;;;;;;16.03;35.21;95438.84;4948274;28;20541;-68
2023/06/10 03:31:13;;;;;;;10.23;4.75;;;;;;;16.00;35.35;95442.78;4949363;28;20114;-68
2023/06/10 03:33:39;;;;;;;9.75;4.60;;;;;;;16.11;34.96;95441.25;4948080;28;20131;-69
2023/06/10 03:36:04;;;;;;;6.65;4.78;;;;;;;16.07;34.87;95446.25;4948075;28;20235;-68
2023/06/10 03:38:30;;;;;;;6.95;4.70;;;;;;;16.07;35.07;95443.56;4959417;28;20035;-69
2023/06/10 03:40:55;;;;;;;5.97;4.72;;;;;;;15.95;35.63;95443.41;4959751;28;20204;-69
2023/06/10 03:43:21;;;;;;;5.93;4.55;;;;;;;16.05;35.18;95442.13;4957884;28;20026;-68
2023/06/10 03:45:48;;;;;;;5.95;4.50;;;;;;;16.09;34.98;95446.03;4950032;28;20524;-68
2023/06/10 03:48:13;;;;;;;6.75;4.63;;;;;;;16.13;34.89;95439.19;4951472;28;20038;-68
2023/06/10 03:50:38;;;;;;;7.90;4.80;;;;;;;16.19;34.88;95438.31;4947322;28;20039;-68
2023/06/10 03:53:04;;;;;;;6.35;4.80;;;;;;;16.19;34.71;95441.00;4951286;28;20661;-68
2023/06/10 03:55:31;;;;;;;6.45;4.20;;;;;;;16.26;34.58;95444.44;4950316;28;20039;-68
2023/06/10 03:57:56;;;;;;;5.78;4.45;;;;;;;16.25;34.66;95444.69;4951379;28;20256;-68
2023/06/10 04:00:21;;;;;;;8.85;4.95;;;;;;;16.32;34.35;95441.94;4949969;28;20032;-68
2023/06/10 04:02:49;;;;;;;7.18;4.50;;;;;;;16.30;34.28;95441.31;4952140;28;20098;-69
2023/06/10 04:05:15;;;;;;;8.30;4.43;;;;;;;16.33;34.51;95440.88;4950544;28;20058;-68
2023/06/10 04:07:42;;;;;;;7.78;4.57;;;;;;;16.42;34.19;95434.22;4949924;28;20470;-68
2023/06/10 04:10:08;;;;;;;6.93;4.60;;;;;;;16.53;34.12;95438.06;4950697;28;20530;-69
2023/06/10 04:12:34;;;;;;;7.68;4.53;;;;;;;16.59;33.92;95439.06;4953705;28;20063;-68
2023/06/10 04:15:00;;;;;;;8.00;4.90;;;;;;;16.61;33.92;95439.63;4947468;28;20046;-68
2023/06/10 04:17:25;;;;;;;6.90;4.47;;;;;;;16.53;34.19;95438.06;4946163;28;20512;-68
2023/06/10 04:19:51;;;;;;;6.45;4.50;;;;;;;16.59;34.01;95441.75;4943644;28;20027;-68
2023/06/10 04:22:17;;;;;;;6.63;4.60;;;;;;;16.64;34.00;95439.22;4945842;28;20557;-68
2023/06/10 04:24:43;;;;;;;5.85;4.40;;;;;;;16.68;34.02;95445.78;4947327;28;20039;-68
2023/06/10 04:27:08;;;;;;;6.70;4.47;;;;;;;16.73;33.87;95442.44;4948781;28;20369;-68
2023/06/10 04:29:34;;;;;;;6.00;4.50;;;;;;;16.84;33.83;95441.72;4947390;28;20039;-68
2023/06/10 04:32:00;;;;;;;6.40;4.30;;;;;;;16.94;33.49;95448.41;4949661;28;20035;-68
2023/06/10 04:34:25;;;;;;;6.18;4.30;;;;;;;17.05;33.45;95454.91;4947574;28;20434;-69
2023/06/10 04:36:50;;;;;;;7.47;4.35;;;;;;;17.06;33.37;95453.91;4946617;28;20042;-68
2023/06/10 04:39:16;;;;;;;5.93;4.18;;;;;;;17.25;33.26;95466.34;4946010;28;20043;-68
2023/06/10 04:41:42;;;;;;;5.90;4.55;;;;;;;17.31;33.28;95463.78;4947929;28;20050;-69
2023/06/10 04:44:07;;;;;;;6.90;4.75;;;;;;;17.24;33.61;95466.56;4947556;28;20113;-68
2023/06/10 04:46:33;;;;;;;6.38;4.30;;;;;;;17.27;33.65;95460.72;4952739;28;20035;-68
2023/06/10 04:48:58;;;;;;;6.53;4.32;;;;;;;17.34;33.17;95460.66;4948555;28;20051;-68
2023/06/10 04:51:23;;;;;;;6.35;4.18;;;;;;;17.48;32.93;95455.91;4948108;28;20026;-69
2023/06/10 04:53:49;;;;;;;8.18;4.25;;;;;;;17.46;33.35;95458.84;4948780;28;20054;-69
2023/06/10 04:56:16;;;;;;;6.40;4.25;;;;;;;17.61;32.84;95452.25;4950750;28;20668;-69
2023/06/10 04:58:41;;;;;;;6.20;4.40;;;;;;;17.57;33.21;95461.81;4950014;28;20674;-69
2023/06/10 05:01:06;;;;;;;6.38;4.43;;;;;;;17.65;32.89;95456.13;4948149;28;20039;-69
2023/06/10 05:03:32;;;;;;;6.50;4.38;;;;;;;17.86;32.18;95451.31;4947600;28;20059;-69
2023/06/10 05:05:57;;;;;;;5.30;4.20;;;;;;;18.09;32.41;95460.50;4950948;28;20046;-69
2023/06/10 05:08:23;;;;;;;5.30;4.43;;;;;;;18.11;31.92;95456.53;4947693;28;20051;-69
2023/06/10 05:10:48;;;;;;;6.03;4.20;;;;;;;18.13;32.78;95459.84;4954944;28;20050;-69
2023/06/10 05:13:13;;;;;;;6.18;4.40;;;;;;;18.18;31.92;95457.25;4958655;28;20038;-69
2023/06/10 05:15:40;;;;;;;7.43;4.60;;;;;;;18.28;31.94;95462.06;4957923;28;20424;-68
2023/06/10 05:18:05;;;;;;;5.30;4.13;;;;;;;18.34;32.14;95459.50;4947557;28;20127;-69
2023/06/10 05:20:31;;;;;;;7.30;4.35;;;;;;;18.49;31.96;95451.78;4944739;28;20369;-69
2023/06/10 05:22:56;;;;;;;6.63;4.20;;;;;;;18.69;31.76;95462.28;4945991;28;20535;-69
2023/06/10 05:25:21;;;;;;;6.90;3.95;;;;;;;18.89;31.57;95465.66;4945604;28;20036;-69
2023/06/10 05:27:47;;;;;;;5.72;4.10;;;;;;;18.97;31.73;95462.63;4928361;28;20050;-68
2023/06/10 05:30:12;;;;;;;8.75;4.25;;;;;;;18.95;31.25;95468.25;4947771;28;20043;-69
2023/06/10 05:32:38;;;;;;;7.47;4.28;;;;;;;19.02;31.35;95464.59;4948448;28;20038;-69
2023/06/10 05:35:04;;;;;;;7.68;4.18;;;;;;;18.99;31.03;95459.66;4944791;28;20399;-68
2023/06/10 05:37:30;;;;;;;7.78;4.30;;;;;;;19.07;31.52;95462.84;4949660;28;20034;-68
2023/06/10 05:39:55;;;;;;;6.13;4.20;;;;;;;19.21;30.97;95468.00;4947663;28;20034;-68
2023/06/10 05:42:20;;;;;;;7.70;4.50;;;;;;;19.26;30.96;95465.41;4950694;28;20026;-69
2023/06/10 05:44:46;;;;;;;7.90;4.03;;;;;;;19.47;30.57;95460.44;4946951;28;20047;-69
2023/06/10 05:47:11;;;;;;;6.57;4.78;;;;;;;19.42;30.63;95457.66;4948419;28;20045;-68
2023/06/10 05:49:37;;;;;;;8.68;4.18;;;;;;;19.55;30.92;95460.06;4948073;28;20402;-69
2023/06/10 05:52:02;;;;;;;5.43;4.00;;;;;;;19.71;30.80;95465.75;4949604;28;20046;-68
2023/06/10 05:54:28;;;;;;;6.93;4.10;;;;;;;19.87;30.81;95461.47;4950822;28;20585;-69
2023/06/10 05:56:53;;;;;;;5.38;4.15;;;;;;;20.01;30.24;95456.63;4948846;28;20502;-69
2023/06/10 05:59:18;;;;;;;5.05;4.03;;;;;;;20.15;30.19;95464.44;4949164;28;20489;-69
2023/06/10 06:01:44;;;;;;;7.53;4.18;;;;;;;20.24;30.01;95471.06;4950124;28;20047;-69
2023/06/10 06:04:09;;;;;;;5.72;4.10;;;;;;;20.46;29.14;95462.22;4949179;28;20044;-68
2023/06/10 06:06:35;;;;;;;6.65;4.40;;;;;;;20.65;29.56;95464.72;4948381;28;20557;-69
2023/06/10 06:09:01;;;;;;;7.38;4.28;;;;;;;20.42;29.99;95470.03;4947264;28;20606;-69
2023/06/10 06:11:26;;;;;;;6.57;4.20;;;;;;;20.77;29.46;95465.44;4949137;28;20035;-69
2023/06/10 06:13:52;;;;;;;6.30;4.28;;;;;;;20.97;29.42;95462.22;4949968;28;20039;-69
2023/06/10 06:16:18;;;;;;;7.05;4.38;;;;;;;21.19;29.17;95461.44;4949121;28;20051;-69
2023/06/10 06:18:43;;;;;;;8.25;4.32;;;;;;;21.37;28.78;95467.66;4949665;28;20398;-69
2023/06/10 06:21:09;;;;;;;5.80;4.00;;;;;;;21.55;28.90;95463.00;4949972;28;20514;-69
2023/06/10 06:23:34;;;;;;;5.97;4.07;;;;;;;21.59;28.45;95464.13;4949157;28;20035;-69
2023/06/10 06:26:00;;;;;;;5.15;4.15;;;;;;;21.68;29.19;95464.50;4949740;28;20046;-69
2023/06/10 06:28:28;;;;;;;6.15;4.05;;;;;;;21.75;28.17;95462.41;4947573;28;20047;-69
2023/06/10 06:30:57;;;;;;;6.78;4.30;;;;;;;21.90;27.93;95473.41;4949348;28;20502;-69
2023/06/10 06:33:22;;;;;;;6.70;4.07;;;;;;;22.07;28.07;95464.41;4954910;28;20045;-68
2023/06/10 06:35:48;;;;;;;7.78;4.20;;;;;;;22.09;27.50;95462.25;4963325;28;20027;-68
2023/06/10 06:38:13;;;;;;;7.50;4.13;;;;;;;22.33;27.66;95464.63;4949329;28;20023;-69
2023/06/10 06:40:38;;;;;;;6.75;4.05;;;;;;;22.37;28.02;95471.16;4949070;28;20049;-69
2023/06/10 06:43:04;;;;;;;8.90;4.20;;;;;;;22.51;27.72;95470.75;4949659;28;20324;-69
2023/06/10 06:45:29;;;;;;;5.85;3.90;;;;;;;22.51;26.86;95476.16;4952503;28;20270;-69
2023/06/10 06:47:55;;;;;;;5.43;4.50;;;;;;;22.45;27.84;95482.63;4946749;28;20035;-69
2023/06/10 06:50:21;;;;;;;6.40;4.07;;;;;;;22.58;27.49;95476.81;4950812;28;20100;-69
2023/06/10 06:52:46;;;;;;;6.90;4.28;;;;;;;22.62;27.27;95483.34;4949310;28;20457;-69
2023/06/10 06:55:12;;;;;;;8.05;3.95;;;;;;;22.87;27.04;95478.34;4950366;28;20035;-69
2023/06/10 06:57:37;;;;;;;6.80;4.20;;;;;;;23.10;26.75;95479.88;4948970;28;20422;-69
2023/06/10 07:00:03;;;;;;;6.53;4.60;;;;;;;22.92;27.54;95484.63;4952474;28;20565;-69
2023/06/10 07:02:28;;;;;;;7.63;4.43;;;;;;;23.17;26.71;95491.34;4952781;28;20027;-69
2023/06/10 07:04:55;;;;;;;6.32;4.40;;;;;;;23.26;26.60;95482.69;4946288;28;20126;-69
2023/06/10 07:07:21;;;;;;;6.38;4.25;;;;;;;23.37;26.28;95489.81;4950833;28;20686;-69
2023/06/10 07:09:47;;;;;;;6.93;3.90;;;;;;;23.64;26.72;95494.28;4948404;28;20350;-69
2023/06/10 07:12:12;;;;;;;6.78;4.20;;;;;;;23.54;27.36;95483.38;4948794;28;20035;-69
2023/06/10 07:14:37;;;;;;;7.95;4.30;;;;;;;23.40;26.06;95493.91;4950412;28;20037;-69
2023/06/10 07:17:03;;;;;;;8.07;4.30;;;;;;;23.45;26.27;95499.34;4946739;28;20043;-69
2023/06/10 07:19:28;;;;;;;5.72;4.00;;;;;;;23.63;25.51;95495.38;4954504;28;20129;-69
2023/06/10 07:21:54;;;;;;;5.28;4.00;;;;;;;23.86;25.56;95506.06;4951878;28;20085;-69
2023/06/10 07:24:20;;;;;;;7.18;4.18;;;;;;;23.84;26.03;95509.06;4937707;28;20109;-69
2023/06/10 07:26:45;;;;;;;7.13;4.50;;;;;;;23.94;25.93;95503.63;4954482;28;20043;-69
2023/06/10 07:29:10;;;;;;;5.93;4.22;;;;;;;24.17;25.67;95506.97;4948515;28;20123;-69
2023/06/10 07:31:36;;;;;;;6.10;4.20;;;;;;;24.07;25.68;95504.22;4952394;28;20027;-69
2023/06/10 07:34:01;;;;;;;7.85;4.35;;;;;;;24.28;25.30;95506.97;4960318;28;20442;-69
2023/06/10 07:36:28;;;;;;;9.90;4.18;;;;;;;24.29;25.31;95505.88;4959546;28;20073;-69
2023/06/10 07:38:54;;;;;;;5.13;4.00;;;;;;;24.48;25.16;95513.56;4946860;28;20035;-70
2023/06/10 07:41:20;;;;;;;7.97;4.20;;;;;;;24.57;25.96;95515.47;4947100;28;20532;-69
2023/06/10 07:43:45;;;;;;;7.60;4.43;;;;;;;24.68;25.94;95516.28;4953090;28;20039;-68
2023/06/10 07:46:11;;;;;;;5.80;3.90;;;;;;;24.96;25.57;95514.16;4953805;28;20023;-69
2023/06/10 07:48:36;;;;;;;6.18;4.05;;;;;;;25.05;24.81;95519.03;4950704;28;20406;-69
2023/06/10 07:51:01;;;;;;;5.80;3.72;;;;;;;24.88;24.47;95511.13;4952278;28;20078;-69
2023/06/10 07:53:27;;;;;;;6.55;4.28;;;;;;;25.19;24.54;95520.09;4953005;28;20050;-69
2023/06/10 07:55:53;;;;;;;5.32;4.18;;;;;;;25.06;24.17;95521.50;4949080;28;20039;-69
2023/06/10 07:58:18;;;;;;;6.53;4.03;;;;;;;25.37;23.91;95523.31;4951709;28;20414;-69
2023/06/10 08:00:44;;;;;;;7.40;4.27;;;;;;;25.41;24.16;95521.69;4950597;28;20027;-69
2023/06/10 08:03:09;;;;;;;6.53;3.97;;;;;;;25.56;23.70;95526.28;4951547;28;20027;-68
2023/06/10 08:05:35;;;;;;;6.45;4.10;;;;;;;25.72;22.92;95518.88;4952616;28;20049;-69
2023/06/10 08:08:00;;;;;;;6.27;3.70;;;;;;;25.83;22.94;95521.56;4950483;28;20047;-69
2023/06/10 08:10:25;;;;;;;5.95;3.90;;;;;;;25.91;23.37;95523.72;4956981;28;20023;-69
2023/06/10 08:12:51;;;;;;;8.93;4.23;;;;;;;25.97;23.32;95517.13;4945436;28;20035;-69
2023/06/10 08:15:16;;;;;;;4.33;3.87;;;;;;;26.07;22.82;95521.72;4946185;28;20042;-69
2023/06/10 08:17:42;;;;;;;5.83;3.90;;;;;;;26.24;23.01;95521.38;4951464;28;20051;-69
2023/06/10 08:20:07;;;;;;;4.87;3.93;;;;;;;26.24;22.81;95515.13;4946300;28;20082;-69
2023/06/10 08:22:33;;;;;;;5.40;3.73;;;;;;;26.10;22.50;95521.19;4950256;28;20039;-69
2023/06/10 08:24:59;;;;;;;5.53;4.00;;;;;;;26.47;22.06;95513.56;4949943;28;20089;-69
2023/06/10 08:27:24;;;;;;;7.47;3.63;;;;;;;26.55;22.25;95514.91;4953247;28;20062;-69
2023/06/10 08:29:50;;;;;;;6.73;3.80;;;;;;;26.92;20.95;95520.09;4953662;28;20034;-69
2023/06/10 08:32:15;;;;;;;5.60;4.00;;;;;;;26.83;21.19;95523.44;4948941;28;20335;-69
2023/06/10 08:34:41;;;;;;;7.63;4.97;;;;;;;26.64;21.37;95523.31;4952811;28;20027;-69
2023/06/10 08:37:07;;;;;;;7.63;4.40;;;;;;;26.92;21.52;95523.63;4951859;28;20065;-69
2023/06/10 08:39:32;;;;;;;8.60;4.03;;;;;;;27.17;20.43;95523.69;4950800;28;20031;-69
2023/06/10 08:42:09;;;;;;;6.07;4.67;;;;;;;27.30;20.89;95520.31;4934922;28;20093;-70
2023/06/10 08:44:37;;;;;;;5.70;4.10;;;;;;;27.41;20.73;95521.00;4945935;28;20118;-69
2023/06/10 08:47:04;;;;;;;5.47;3.80;;;;;;;27.89;20.05;95516.63;4951092;28;20034;-69
2023/06/10 08:49:30;;;;;;;8.88;4.40;;;;;;;27.45;19.46;95519.31;4921363;28;20031;-69
2023/06/10 08:51:58;;;;;;;5.38;4.00;;;;;;;27.64;20.22;95524.84;4945520;28;20497;-69
2023/06/10 08:54:25;;;;;;;5.70;3.97;;;;;;;27.63;19.75;95528.69;4946888;28;20031;-69
2023/06/10 08:56:51;;;;;;;5.78;3.65;;;;;;;27.78;19.51;95522.22;4947662;28;20850;-69
2023/06/10 08:59:16;;;;;;;10.10;4.90;;;;;;;27.78;19.89;95527.69;4930356;28;20031;-69
2023/06/10 09:01:43;;;;;;;5.00;3.90;;;;;;;28.07;18.93;95522.44;4932425;28;20078;-69
2023/06/10 09:04:08;;;;;;;10.45;3.90;;;;;;;27.84;19.77;95524.91;4948634;28;20043;-69
2023/06/10 09:06:34;;;;;;;7.43;3.60;;;;;;;28.11;18.78;95520.72;4949941;28;20086;-69
2023/06/10 09:08:59;;;;;;;6.87;3.67;;;;;;;27.90;19.01;95523.72;4956889;28;20935;-69
2023/06/10 09:11:25;;;;;;;7.10;3.30;;;;;;;28.13;18.61;95518.50;4958555;28;20105;-69
2023/06/10 09:13:50;;;;;;;7.80;3.63;;;;;;;28.45;18.82;95516.97;4936703;28;20038;-69
2023/06/10 09:16:16;;;;;;;7.80;3.53;;;;;;;28.59;18.94;95522.53;4947229;28;20116;-69
2023/06/10 09:18:42;;;;;;;5.83;3.67;;;;;;;28.69;19.23;95518.03;4928561;28;20034;-69
2023/06/10 09:21:07;;;;;;;8.23;4.13;;;;;;;28.93;19.19;95526.91;4930386;28;20290;-69
2023/06/10 09:23:33;;;;;;;6.20;3.70;;;;;;;29.00;17.54;95522.97;4948516;28;20050;-70
2023/06/10 09:25:58;;;;;;;9.93;5.70;;;;;;;28.70;18.23;95517.72;4931331;28;20038;-70
2023/06/10 09:28:24;;;;;;;6.23;4.63;;;;;;;28.38;18.80;95516.56;4943800;28;20407;-69
2023/06/10 09:30:49;;;;;;;8.13;4.43;;;;;;;28.53;18.76;95520.97;4943078;28;20425;-69
2023/06/10 09:33:15;;;;;;;6.30;4.07;;;;;;;28.64;18.34;95518.88;4950534;28;20076;-70
2023/06/10 09:35:50;;;;;;;8.07;3.70;;;;;;;28.99;18.03;95518.63;4944911;28;20031;-69
2023/06/10 09:38:29;;;;;;;5.63;3.97;;;;;;;28.71;18.10;95515.78;4946917;28;20030;-67
2023/06/10 09:40:55;;;;;;;5.38;3.60;;;;;;;28.98;18.32;95515.06;4947235;28;20019;-69
2023/06/10 09:43:20;;;;;;;5.77;3.87;;;;;;;29.35;17.67;95514.44;4950558;28;20050;-69
2023/06/10 09:45:50;;;;;;;9.20;6.83;;;;;;;29.44;18.13;95516.16;4944896;28;20115;-69
2023/06/10 09:48:15;;;;;;;5.75;4.30;;;;;;;29.66;18.82;95516.56;4948954;28;20485;-69
2023/06/10 09:50:44;;;;;;;7.60;4.03;;;;;;;29.65;17.46;95518.53;4927397;28;20039;-69
2023/06/10 09:53:10;;;;;;;8.52;4.20;;;;;;;29.78;16.97;95514.16;4944458;28;20027;-69
2023/06/10 09:55:39;;;;;;;5.88;4.70;;;;;;;29.77;18.23;95520.75;4950180;28;20066;-69
2023/06/10 09:58:05;;;;;;;8.73;3.90;;;;;;;30.03;17.53;95522.97;4950157;28;20054;-69
2023/06/10 10:00:32;;;;;;;8.00;5.80;;;;;;;29.72;17.25;95517.31;4954205;28;20029;-69
2023/06/10 10:02:58;;;;;;;5.32;3.47;;;;;;;30.07;16.57;95518.50;4949988;28;20039;-69
2023/06/10 10:05:23;;;;;;;5.13;3.63;;;;;;;30.26;15.77;95520.31;4955348;28;20490;-69
2023/06/10 10:07:49;;;;;;;7.13;4.10;;;;;;;30.27;15.79;95519.19;4951403;28;20131;-69
2023/06/10 10:10:15;;;;;;;6.90;4.70;;;;;;;30.24;16.89;95521.75;4950079;28;20122;-66
2023/06/10 10:12:41;;;;;;;7.95;4.00;;;;;;;30.27;16.00;95521.09;4955584;28;20098;-67
2023/06/10 10:15:10;;;;;;;6.53;3.53;;;;;;;30.49;15.29;95517.59;4947613;28;20027;-67
2023/06/10 10:17:58;;;;;;;9.82;3.58;;;;;;;30.36;15.26;95505.53;4953103;28;20038;-67
2023/06/10 10:20:29;;;;;;;8.85;3.72;;;;;;;30.54;15.97;95503.75;4932578;28;20036;-67
2023/06/10 10:22:56;;;;;;;6.15;3.50;;;;;;;30.38;15.66;95508.78;4934732;28;20023;-67
2023/06/10 10:25:29;;;;;;;6.10;4.63;;;;;;;30.61;15.61;95505.22;4933872;28;20027;-67
2023/06/10 10:27:58;;;;;;;6.43;3.92;;;;;;;30.27;16.33;95516.44;4938573;28;20042;-67
2023/06/10 10:30:24;;;;;;;6.72;3.78;;;;;;;30.27;16.85;95515.63;4957698;28;20094;-67
2023/06/10 10:33:08;;;;;;;6.67;4.00;;;;;;;30.76;15.70;95515.88;4934636;28;20034;-67
2023/06/10 10:35:33;;;;;;;7.50;3.72;;;;;;;30.67;15.71;95517.75;4916032;28;20121;-67
2023/06/10 10:37:59;;;;;;;4.03;3.43;;;;;;;30.53;16.21;95518.59;4936085;28;20035;-67
2023/06/10 10:40:25;;;;;;;9.45;3.70;;;;;;;30.35;16.26;95516.84;4928878;28;20046;-67
2023/06/10 10:42:51;;;;;;;7.63;3.58;;;;;;;30.00;16.54;95520.84;4935400;28;20039;-67
2023/06/10 10:45:16;;;;;;;5.13;3.03;;;;;;;30.35;17.08;95514.09;4933821;28;20035;-67
2023/06/10 10:47:43;;;;;;;6.17;3.80;;;;;;;30.44;16.12;95515.78;4951554;28;20039;-66
2023/06/10 10:50:16;;;;;;;5.55;3.75;;;;;;;30.86;15.64;95516.75;4936469;28;20090;-66
2023/06/10 10:52:55;;;;;;;6.13;3.40;;;;;;;30.89;15.72;95516.94;4952999;28;20110;-66
2023/06/10 10:55:21;;;;;;;6.88;3.10;;;;;;;31.17;15.18;95516.78;4950632;28;20049;-66
2023/06/10 10:58:06;;;;;;;11.27;3.30;;;;;;;31.22;15.55;95511.16;4949333;28;20038;-66
2023/06/10 11:00:36;;;;;;;6.43;3.13;;;;;;;31.42;15.36;95522.75;4957150;28;20501;-66
2023/06/10 11:03:07;;;;;;;3.97;3.05;;;;;;;31.19;15.50;95513.72;4947879;28;20042;-66
2023/06/10 11:05:49;;;;;;;6.55;4.20;;;;;;;30.86;15.99;95514.00;4951581;28;20094;-66
2023/06/10 11:08:33;;;;;;;5.25;3.75;;;;;;;31.10;15.50;95510.94;4948978;28;20027;-66
2023/06/10 11:10:58;;;;;;;7.68;3.22;;;;;;;30.94;15.11;95516.00;4946004;28;20130;-67
2023/06/10 11:13:25;;;;;;;6.87;3.23;;;;;;;31.15;16.15;95499.81;4930902;28;20298;-70
2023/06/10 11:15:50;;;;;;;5.32;4.40;;;;;;;30.63;16.15;95501.06;4946404;28;20035;-75
2023/06/10 11:18:26;;;;;;;5.97;3.30;;;;;;;31.41;15.73;95501.06;4948247;28;20042;-75
2023/06/10 11:20:56;;;;;;;7.68;5.75;;;;;;;31.22;16.36;95500.19;4947720;28;20019;-75
2023/06/10 11:23:28;;;;;;;7.22;5.80;;;;;;;30.59;16.15;95492.63;4931264;28;20127;-75
2023/06/10 11:26:12;;;;;;;6.78;5.15;;;;;;;30.83;16.57;95488.78;4951411;28;20517;-75
2023/06/10 11:28:57;;;;;;;6.43;4.47;;;;;;;31.11;16.18;95487.81;4947616;28;20502;-75
2023/06/10 11:31:23;;;;;;;;;;;;;;;31.30;15.86;95495.03;4936774;28;20318;-75